createdAt,value
2019-04-27T00:01:48.477Z,79.31
2019-04-27T00:04:25.320Z,79.13
2019-04-27T00:06:56.068Z,79.63
2019-04-27T00:09:43.101Z,79.90
2019-04-27T00:12:16.411Z,79.50
2019-04-27T00:14:44.099Z,79.16
2019-04-27T00:17:40.439Z,78.98
2019-04-27T00:19:55.779Z,78.56
2019-04-27T00:22:33.576Z,79.51
2019-04-27T00:25:03.503Z,79.51
2019-04-27T00:27:33.537Z,79.05
2019-04-27T00:30:05.855Z,78.84
2019-04-27T00:32:34.282Z,78.66
2019-04-27T00:35:03.748Z,78.70
2019-04-27T00:37:36.637Z,79.02
2019-04-27T00:40:14.771Z,79.07
2019-04-27T00:42:45.724Z,79.24
2019-04-27T00:45:16.765Z,79.43
2019-04-27T00:47:56.590Z,79.35
2019-04-27T00:50:16.668Z,78.85
2019-04-27T00:52:45.631Z,78.99
2019-04-27T00:55:14.045Z,79.91
2019-04-27T00:58:00.398Z,79.74
2019-04-27T01:00:33.747Z,79.97
2019-04-27T01:03:03.968Z,79.41
2019-04-27T01:05:33.766Z,79.50
2019-04-27T01:08:03.820Z,79.51
2019-04-27T01:10:33.450Z,79.60
2019-04-27T01:13:05.821Z,79.36
2019-04-27T01:15:34.394Z,79.28
2019-04-27T01:18:11.979Z,79.14
2019-04-27T01:20:32.989Z,79.31
2019-04-27T01:23:01.619Z,79.45
2019-04-27T01:25:31.681Z,79.72
2019-04-27T01:28:18.614Z,79.39
2019-04-27T01:30:49.041Z,79.66
2019-04-27T01:33:17.491Z,79.26
2019-04-27T01:35:45.973Z,79.38
2019-04-27T01:38:14.401Z,79.88
2019-04-27T01:40:42.811Z,79.85
2019-04-27T01:43:11.258Z,79.77
2019-04-27T01:45:43.623Z,79.63
2019-04-27T01:48:23.623Z,79.75
2019-04-27T01:50:47.097Z,79.91
2019-04-27T01:53:15.638Z,79.50
2019-04-27T01:55:44.050Z,80.02
2019-04-27T01:58:12.586Z,79.82
2019-04-27T02:01:01.262Z,80.30
2019-04-27T02:03:33.279Z,79.39
2019-04-27T02:06:02.083Z,79.69
2019-04-27T02:08:30.565Z,80.41
2019-04-27T02:10:59.489Z,80.58
2019-04-27T02:13:29.036Z,80.58
2019-04-27T02:15:58.846Z,79.93
2019-04-27T02:18:35.611Z,79.88
2019-04-27T02:20:59.156Z,80.12
2019-04-27T02:23:29.304Z,79.93
2019-04-27T02:25:58.598Z,80.27
2019-04-27T02:28:29.494Z,79.92
2019-04-27T02:31:19.555Z,80.21
2019-04-27T02:33:52.766Z,80.29
2019-04-27T02:36:21.173Z,80.55
2019-04-27T02:38:50.165Z,79.94
2019-04-27T02:41:19.919Z,79.84
2019-04-27T02:43:50.177Z,80.54
2019-04-27T02:46:20.174Z,80.29
2019-04-27T02:48:59.658Z,80.64
2019-04-27T02:51:42.464Z,80.82
2019-04-27T02:54:12.052Z,80.21
2019-04-27T02:56:40.557Z,80.30
2019-04-27T02:59:11.879Z,79.83
2019-04-27T03:01:50.300Z,79.72
2019-04-27T03:04:20.492Z,80.02
2019-04-27T03:06:50.080Z,79.84
2019-04-27T03:09:20.510Z,79.42
2019-04-27T03:11:49.961Z,79.47
2019-04-27T03:14:34.932Z,79.84
2019-04-27T03:17:00.169Z,80.22
2019-04-27T03:19:30.047Z,80.08
2019-04-27T03:22:00.340Z,80.10
2019-04-27T03:24:46.582Z,80.05
2019-04-27T03:27:16.644Z,79.55
2019-04-27T03:29:45.302Z,79.82
2019-04-27T03:32:13.907Z,79.85
2019-04-27T03:34:42.344Z,79.37
2019-04-27T03:37:10.955Z,80.15
2019-04-27T03:39:39.860Z,80.15
2019-04-27T03:42:10.467Z,80.01
2019-04-27T03:44:39.767Z,79.98
2019-04-27T03:47:10.023Z,80.10
2019-04-27T03:49:41.587Z,80.32
2019-04-27T03:52:14.445Z,80.06
2019-04-27T03:55:00.653Z,80.36
2019-04-27T03:57:33.268Z,80.47
2019-04-27T04:00:03.385Z,80.39
2019-04-27T04:02:31.806Z,80.45
2019-04-27T04:05:04.102Z,79.90
2019-04-27T04:07:32.515Z,80.13
2019-04-27T04:10:00.930Z,80.02
2019-04-27T04:12:36.072Z,79.90
2019-04-27T04:15:10.007Z,79.90
2019-04-27T04:17:40.250Z,80.28
2019-04-27T04:20:10.206Z,79.93
2019-04-27T04:22:40.357Z,80.31
2019-04-27T04:25:10.703Z,79.88
2019-04-27T04:27:42.813Z,79.89
2019-04-27T04:30:12.432Z,79.72
2019-04-27T04:32:41.123Z,80.14
2019-04-27T04:35:21.603Z,79.93
2019-04-27T04:37:52.774Z,79.91
2019-04-27T04:40:25.250Z,79.89
2019-04-27T04:42:55.380Z,79.57
2019-04-27T04:45:25.532Z,79.32
2019-04-27T04:47:55.660Z,79.45
2019-04-27T04:50:30.248Z,79.62
2019-04-27T04:53:00.143Z,79.19
2019-04-27T04:55:30.476Z,78.97
2019-04-27T04:57:59.105Z,79.45
2019-04-27T05:00:29.861Z,79.19
2019-04-27T05:02:59.693Z,79.38
2019-04-27T05:05:29.315Z,79.24
2019-04-27T05:08:00.769Z,79.32
2019-04-27T05:10:28.795Z,79.78
2019-04-27T05:12:59.077Z,79.50
2019-04-27T05:15:29.317Z,79.37
2019-04-27T05:17:59.192Z,78.92
2019-04-27T05:20:32.722Z,79.29
2019-04-27T05:23:01.132Z,79.31
2019-04-27T05:25:30.502Z,79.65
2019-04-27T05:27:59.675Z,79.36
2019-04-27T05:30:28.708Z,78.89
2019-04-27T05:32:58.581Z,78.53
2019-04-27T05:35:27.114Z,79.07
2019-04-27T05:37:55.542Z,79.40
2019-04-27T05:40:24.019Z,79.18
2019-04-27T05:42:56.244Z,78.99
2019-04-27T05:45:57.770Z,79.23
2019-04-27T05:48:30.756Z,79.00
2019-04-27T05:51:04.977Z,78.58
2019-04-27T05:53:34.459Z,78.53
2019-04-27T05:56:05.982Z,78.72
2019-04-27T05:58:34.562Z,78.19
2019-04-27T06:01:02.968Z,77.77
2019-04-27T06:03:31.457Z,78.06
2019-04-27T06:06:15.682Z,78.18
2019-04-27T06:08:49.512Z,77.71
2019-04-27T06:11:19.532Z,77.41
2019-04-27T06:13:49.252Z,77.17
2019-04-27T06:16:19.504Z,76.49
2019-04-27T06:18:49.360Z,75.73
2019-04-27T06:21:19.427Z,75.92
2019-04-27T06:23:48.808Z,76.04
2019-04-27T06:26:17.288Z,73.91
2019-04-27T06:28:45.744Z,72.88
2019-04-27T06:31:15.219Z,70.91
2019-04-27T06:33:43.671Z,70.63
2019-04-27T06:36:14.593Z,70.06
2019-04-27T06:38:43.032Z,68.93
2019-04-27T06:41:11.433Z,68.89
2019-04-27T06:43:41.838Z,68.90
2019-04-27T06:46:10.273Z,68.37
2019-04-27T06:48:39.459Z,67.98
2019-04-27T06:51:09.684Z,66.42
2019-04-27T06:53:39.443Z,65.51
2019-04-27T06:56:08.947Z,63.97
2019-04-27T06:58:38.928Z,62.59
2019-04-27T07:01:10.754Z,61.19
2019-04-27T07:03:39.553Z,59.70
2019-04-27T07:06:08.855Z,60.60
2019-04-27T07:08:37.460Z,58.72
2019-04-27T07:11:05.982Z,57.34
2019-04-27T07:13:34.388Z,53.13
2019-04-27T07:16:03.098Z,49.41
2019-04-27T07:18:35.363Z,47.82
2019-04-27T07:21:16.000Z,44.71
2019-04-27T07:23:33.314Z,44.05
2019-04-27T07:26:01.847Z,41.49
2019-04-27T07:28:34.049Z,42.21
2019-04-27T07:31:02.822Z,41.88
2019-04-27T07:33:31.185Z,40.57
2019-04-27T07:35:59.639Z,39.24
2019-04-27T07:38:29.364Z,39.19
2019-04-27T07:40:58.693Z,38.93
2019-04-27T07:43:39.654Z,39.95
2019-04-27T07:46:08.880Z,37.88
2019-04-27T07:48:41.791Z,36.06
2019-04-27T07:51:10.210Z,34.60
2019-04-27T07:53:42.298Z,34.58
2019-04-27T07:56:10.808Z,34.56
2019-04-27T07:58:39.653Z,35.21
2019-04-27T08:01:09.294Z,36.50
2019-04-27T08:03:39.045Z,39.75
2019-04-27T08:06:08.476Z,38.91
2019-04-27T08:08:39.651Z,38.59
2019-04-27T08:11:08.852Z,38.12
2019-04-27T08:13:39.349Z,39.47
2019-04-27T08:16:08.681Z,40.03
2019-04-27T08:18:37.305Z,39.80
2019-04-27T08:21:05.737Z,42.02
2019-04-27T08:23:34.141Z,44.05
2019-04-27T08:26:04.258Z,42.19
2019-04-27T08:28:34.333Z,46.54
2019-04-27T08:31:16.487Z,48.34
2019-04-27T08:33:44.914Z,48.58
2019-04-27T08:36:14.497Z,47.27
2019-04-27T08:38:42.930Z,47.45
2019-04-27T08:41:15.382Z,48.65
2019-04-27T08:43:43.787Z,48.34
2019-04-27T08:46:12.261Z,47.42
2019-04-27T08:48:40.722Z,49.71
2019-04-27T08:51:10.131Z,46.52
2019-04-27T08:53:39.754Z,49.93
2019-04-27T08:56:09.384Z,52.89
2019-04-27T08:58:38.611Z,48.71
2019-04-27T09:01:10.362Z,52.20
2019-04-27T09:03:39.503Z,48.66
2019-04-27T09:06:10.646Z,52.47
2019-04-27T09:08:41.433Z,50.48
2019-04-27T09:11:18.669Z,50.85
2019-04-27T09:13:53.221Z,48.67
2019-04-27T09:16:28.837Z,50.60
2019-04-27T09:18:59.735Z,49.51
2019-04-27T09:21:30.988Z,49.93
2019-04-27T09:23:59.631Z,45.95
2019-04-27T09:26:28.727Z,46.85
2019-04-27T09:28:57.405Z,47.06
2019-04-27T09:31:25.892Z,47.56
2019-04-27T09:33:55.009Z,44.25
2019-04-27T09:36:26.013Z,45.70
2019-04-27T09:38:56.455Z,44.34
2019-04-27T09:41:26.298Z,47.11
2019-04-27T09:44:10.492Z,45.61
2019-04-27T09:46:40.458Z,44.74
2019-04-27T09:49:20.260Z,43.54
2019-04-27T09:51:49.754Z,44.80
2019-04-27T09:54:18.344Z,45.51
2019-04-27T09:56:47.046Z,41.67
2019-04-27T09:59:16.715Z,44.91
2019-04-27T10:01:47.981Z,45.67
2019-04-27T10:04:17.684Z,41.46
2019-04-27T10:06:48.589Z,42.14
2019-04-27T10:09:16.445Z,42.95
2019-04-27T10:11:47.197Z,39.40
2019-04-27T10:14:16.352Z,39.92
2019-04-27T10:16:46.738Z,39.22
2019-04-27T10:19:27.958Z,39.63
2019-04-27T10:21:46.753Z,41.15
2019-04-27T10:24:16.311Z,40.42
2019-04-27T10:26:44.764Z,42.68
2019-04-27T10:29:13.257Z,43.92
2019-04-27T10:31:41.685Z,41.49
2019-04-27T10:34:11.215Z,44.06
2019-04-27T10:36:46.084Z,46.78
2019-04-27T10:39:17.191Z,41.58
2019-04-27T10:41:46.346Z,40.76
2019-04-27T10:44:16.357Z,42.97
2019-04-27T10:46:44.761Z,41.87
2019-04-27T10:49:13.173Z,40.06
2019-04-27T10:51:41.606Z,41.65
2019-04-27T10:54:10.025Z,41.41
2019-04-27T10:56:42.322Z,39.74
2019-04-27T10:59:10.007Z,38.11
2019-04-27T11:01:39.378Z,37.65
2019-04-27T11:04:15.958Z,38.30
2019-04-27T11:06:46.683Z,42.31
2019-04-27T11:09:16.306Z,40.86
2019-04-27T11:11:46.380Z,39.88
2019-04-27T11:14:16.010Z,41.91
2019-04-27T11:16:45.976Z,39.94
2019-04-27T11:19:16.725Z,41.34
2019-04-27T11:21:55.049Z,41.34
2019-04-27T11:24:25.843Z,40.01
2019-04-27T11:26:56.804Z,35.92
2019-04-27T11:29:25.698Z,34.67
2019-04-27T11:32:05.807Z,35.73
2019-04-27T11:34:52.192Z,39.11
2019-04-27T11:37:23.387Z,36.82
2019-04-27T11:39:51.857Z,36.19
2019-04-27T11:42:20.266Z,39.54
2019-04-27T11:44:55.429Z,37.36
2019-04-27T11:47:23.222Z,39.38
2019-04-27T11:49:51.632Z,39.94
2019-04-27T11:52:20.055Z,38.21
2019-04-27T11:54:48.479Z,38.85
2019-04-27T11:57:18.143Z,37.39
2019-04-27T11:59:49.094Z,36.08
2019-04-27T12:02:19.078Z,37.58
2019-04-27T12:04:47.489Z,39.07
2019-04-27T12:07:16.084Z,37.44
2019-04-27T12:09:46.224Z,34.99
2019-04-27T12:12:21.733Z,36.27
2019-04-27T12:14:56.030Z,36.19
2019-04-27T12:17:29.231Z,36.48
2019-04-27T12:19:57.689Z,35.13
2019-04-27T12:22:28.788Z,36.32
2019-04-27T12:24:57.234Z,36.85
2019-04-27T12:27:45.794Z,36.14
2019-04-27T12:30:17.393Z,36.87
2019-04-27T12:32:45.888Z,35.15
2019-04-27T12:35:14.346Z,36.08
2019-04-27T12:37:43.135Z,33.29
2019-04-27T12:40:11.822Z,38.60
2019-04-27T12:42:42.926Z,36.28
2019-04-27T12:45:11.532Z,36.59
2019-04-27T12:47:40.058Z,34.41
2019-04-27T12:50:13.325Z,34.13
2019-04-27T12:52:43.409Z,35.29
2019-04-27T12:55:17.062Z,36.80
2019-04-27T12:57:50.196Z,34.24
2019-04-27T13:00:23.666Z,36.40
2019-04-27T13:02:53.758Z,37.57
2019-04-27T13:05:22.267Z,36.88
2019-04-27T13:07:50.712Z,37.70
2019-04-27T13:10:19.501Z,36.93
2019-04-27T13:12:47.969Z,35.25
2019-04-27T13:15:17.241Z,35.11
2019-04-27T13:17:46.676Z,36.72
2019-04-27T13:20:17.221Z,37.68
2019-04-27T13:22:45.963Z,37.60
2019-04-27T13:25:17.063Z,35.85
2019-04-27T13:27:45.504Z,36.22
2019-04-27T13:30:16.316Z,36.76
2019-04-27T13:32:46.938Z,36.45
2019-04-27T13:35:16.858Z,36.60
2019-04-27T13:37:46.761Z,37.99
2019-04-27T13:40:17.199Z,37.91
2019-04-27T13:42:47.682Z,37.88
2019-04-27T13:45:20.957Z,39.29
2019-04-27T13:47:57.432Z,40.22
2019-04-27T13:50:27.529Z,40.04
2019-04-27T13:53:01.722Z,38.21
2019-04-27T13:55:33.079Z,37.32
2019-04-27T13:58:03.389Z,38.73
2019-04-27T14:00:37.777Z,37.90
2019-04-27T14:03:06.312Z,37.08
2019-04-27T14:05:34.743Z,36.95
2019-04-27T14:08:03.393Z,37.85
2019-04-27T14:10:32.956Z,38.05
2019-04-27T14:13:04.173Z,38.96
2019-04-27T14:15:32.646Z,39.77
2019-04-27T14:18:02.694Z,44.21
2019-04-27T14:20:34.170Z,47.21
2019-04-27T14:23:10.419Z,49.49
2019-04-27T14:25:39.812Z,48.60
2019-04-27T14:28:08.583Z,50.67
2019-04-27T14:30:38.121Z,51.12
2019-04-27T14:33:10.260Z,54.08
2019-04-27T14:35:39.992Z,56.71
2019-04-27T14:38:09.126Z,56.85
2019-04-27T14:40:39.243Z,58.53
2019-04-27T14:43:10.644Z,60.90
2019-04-27T14:45:40.103Z,59.86
2019-04-27T14:48:12.816Z,62.97
2019-04-27T14:50:50.641Z,63.58
2019-04-27T14:53:22.153Z,63.92
2019-04-27T14:55:54.204Z,64.80
2019-04-27T14:58:25.989Z,65.69
2019-04-27T15:00:54.456Z,64.84
2019-04-27T15:03:22.898Z,64.61
2019-04-27T15:05:55.289Z,65.56
2019-04-27T15:08:28.458Z,65.15
2019-04-27T15:10:59.324Z,65.56
2019-04-27T15:13:27.935Z,65.48
2019-04-27T15:15:56.377Z,62.91
2019-04-27T15:18:26.535Z,63.52
2019-04-27T15:20:58.447Z,63.04
2019-04-27T15:23:26.579Z,64.94
2019-04-27T15:26:00.011Z,65.33
2019-04-27T15:28:31.957Z,65.16
2019-04-27T15:31:06.500Z,65.04
2019-04-27T15:33:54.671Z,65.18
2019-04-27T15:36:28.661Z,65.43
2019-04-27T15:38:59.747Z,65.05
2019-04-27T15:41:40.390Z,62.23
2019-04-27T15:44:09.549Z,61.65
2019-04-27T15:46:40.029Z,63.96
2019-04-27T15:49:11.241Z,62.40
2019-04-27T15:51:41.139Z,63.14
2019-04-27T15:54:09.674Z,60.87
2019-04-27T15:56:38.241Z,63.50
2019-04-27T15:59:08.136Z,59.66
2019-04-27T16:01:39.502Z,62.45
2019-04-27T16:04:18.423Z,63.25
2019-04-27T16:06:48.628Z,62.73
2019-04-27T16:09:24.222Z,62.70
2019-04-27T16:11:57.684Z,62.68
2019-04-27T16:14:19.334Z,63.67
2019-04-27T16:16:48.782Z,64.12
2019-04-27T16:19:18.409Z,63.15
2019-04-27T16:21:50.164Z,63.59
2019-04-27T16:24:21.258Z,64.47
2019-04-27T16:26:56.026Z,61.62
2019-04-27T16:29:38.902Z,64.50
2019-04-27T16:32:11.510Z,64.21
2019-04-27T16:34:41.255Z,63.37
2019-04-27T16:37:13.904Z,63.30
2019-04-27T16:39:49.430Z,65.09
2019-04-27T16:42:18.614Z,63.18
2019-04-27T16:44:53.113Z,63.27
2019-04-27T16:47:24.488Z,61.41
2019-04-27T16:49:51.137Z,60.77
2019-04-27T16:52:23.391Z,61.41
2019-04-27T16:54:57.159Z,61.97
2019-04-27T16:57:23.597Z,60.51
2019-04-27T16:59:57.714Z,59.14
2019-04-27T17:02:25.150Z,59.75
2019-04-27T17:04:55.533Z,58.45
2019-04-27T17:07:22.504Z,60.84
2019-04-27T17:09:50.939Z,59.80
2019-04-27T17:12:23.712Z,60.36
2019-04-27T17:14:53.853Z,60.87
2019-04-27T17:17:23.893Z,60.53
2019-04-27T17:19:54.281Z,60.54
2019-04-27T17:22:22.763Z,62.56
2019-04-27T17:24:51.236Z,61.14
2019-04-27T17:27:28.634Z,61.70
2019-04-27T17:29:57.973Z,61.64
2019-04-27T17:32:33.479Z,61.37
2019-04-27T17:35:04.992Z,63.20
2019-04-27T17:37:33.769Z,62.48
2019-04-27T17:40:02.182Z,63.36
2019-04-27T17:42:31.047Z,63.47
2019-04-27T17:45:00.564Z,62.55
2019-04-27T17:47:30.043Z,63.61
2019-04-27T17:49:58.667Z,62.92
2019-04-27T17:52:27.076Z,63.80
2019-04-27T17:54:55.485Z,62.75
2019-04-27T17:57:26.466Z,63.52
2019-04-27T17:59:58.843Z,63.82
2019-04-27T18:02:24.245Z,64.21
2019-04-27T18:04:52.667Z,64.82
2019-04-27T18:07:21.086Z,65.43
2019-04-27T18:09:49.509Z,65.22
2019-04-27T18:12:20.038Z,65.13
2019-04-27T18:14:48.435Z,64.02
2019-04-27T18:17:19.682Z,63.92
2019-04-27T18:19:51.417Z,63.37
2019-04-27T18:22:20.168Z,64.27
2019-04-27T18:24:50.375Z,64.41
2019-04-27T18:27:26.325Z,63.87
2019-04-27T18:29:59.254Z,64.47
2019-04-27T18:32:27.728Z,63.80
2019-04-27T18:34:58.456Z,63.98
2019-04-27T18:37:28.278Z,64.16
2019-04-27T18:39:58.156Z,65.52
2019-04-27T18:42:28.059Z,66.74
2019-04-27T18:45:06.053Z,67.36
2019-04-27T18:47:31.210Z,66.64
2019-04-27T18:50:19.625Z,67.37
2019-04-27T18:52:50.290Z,68.33
2019-04-27T18:55:20.845Z,68.68
2019-04-27T18:57:51.040Z,68.75
2019-04-27T19:00:21.624Z,69.33
2019-04-27T19:02:50.502Z,68.65
2019-04-27T19:05:19.159Z,68.91
2019-04-27T19:07:48.447Z,70.89
2019-04-27T19:10:19.039Z,70.34
2019-04-27T19:12:48.390Z,71.10
2019-04-27T19:15:18.348Z,71.51
2019-04-27T19:17:48.741Z,72.14
2019-04-27T19:20:18.633Z,72.50
2019-04-27T19:22:49.010Z,73.03
2019-04-27T19:25:19.256Z,73.31
2019-04-27T19:28:06.120Z,72.57
2019-04-27T19:30:36.173Z,72.62
2019-04-27T19:33:07.649Z,72.46
2019-04-27T19:35:37.950Z,72.89
2019-04-27T19:38:08.176Z,73.19
2019-04-27T19:40:37.985Z,72.87
2019-04-27T19:43:06.475Z,73.40
2019-04-27T19:45:35.514Z,73.16
2019-04-27T19:48:03.961Z,73.05
2019-04-27T19:50:32.419Z,72.68
2019-04-27T19:53:00.808Z,73.14
2019-04-27T19:55:29.256Z,73.35
2019-04-27T19:57:59.439Z,73.78
2019-04-27T20:00:48.434Z,73.16
2019-04-27T20:03:19.299Z,73.82
2019-04-27T20:05:47.870Z,74.17
2019-04-27T20:08:23.590Z,73.86
2019-04-27T20:10:52.006Z,74.19
2019-04-27T20:13:21.982Z,74.30
2019-04-27T20:15:51.248Z,74.07
2019-04-27T20:18:22.195Z,73.67
2019-04-27T20:20:50.639Z,73.59
2019-04-27T20:23:22.273Z,75.01
2019-04-27T20:25:49.196Z,74.56
2019-04-27T20:28:17.621Z,73.49
2019-04-27T20:30:46.071Z,73.49
2019-04-27T20:33:14.521Z,73.28
2019-04-27T20:35:42.970Z,73.51
2019-04-27T20:38:13.004Z,73.17
2019-04-27T20:40:42.406Z,72.73
2019-04-27T20:43:10.867Z,73.48
2019-04-27T20:45:41.245Z,73.29
2019-04-27T20:48:11.189Z,73.71
2019-04-27T20:50:41.207Z,73.99
2019-04-27T20:53:12.649Z,73.62
2019-04-27T20:55:41.163Z,74.54
2019-04-27T20:58:10.915Z,74.69
2019-04-27T21:00:41.759Z,74.68
2019-04-27T21:03:12.496Z,74.79
2019-04-27T21:05:45.083Z,74.57
2019-04-27T21:08:15.196Z,75.12
2019-04-27T21:10:43.594Z,75.15
2019-04-27T21:13:15.044Z,75.01
2019-04-27T21:15:48.026Z,74.59
2019-04-27T21:18:16.819Z,74.86
2019-04-27T21:20:45.215Z,75.29
2019-04-27T21:23:13.627Z,75.16
2019-04-27T21:25:42.315Z,74.58
2019-04-27T21:28:16.397Z,75.79
2019-04-27T21:30:40.932Z,76.39
2019-04-27T21:33:11.323Z,76.37
2019-04-27T21:35:39.670Z,76.12
2019-04-27T21:38:08.090Z,76.38
2019-04-27T21:40:36.990Z,76.53
2019-04-27T21:43:06.551Z,76.43
2019-04-27T21:45:36.100Z,76.97
2019-04-27T21:48:04.580Z,76.83
2019-04-27T21:50:33.012Z,76.42
2019-04-27T21:53:15.360Z,75.73
2019-04-27T21:55:44.700Z,74.97
2019-04-27T21:58:14.135Z,75.23
2019-04-27T22:00:44.204Z,75.46
2019-04-27T22:03:16.967Z,75.60
2019-04-27T22:05:45.390Z,74.39
2019-04-27T22:08:13.810Z,75.29
2019-04-27T22:10:42.292Z,75.20
2019-04-27T22:13:10.737Z,74.75
2019-04-27T22:15:39.219Z,74.56
2019-04-27T22:18:07.811Z,74.42
2019-04-27T22:20:36.675Z,74.61
2019-04-27T22:23:13.083Z,74.59
2019-04-27T22:25:42.159Z,74.32
2019-04-27T22:28:11.756Z,75.54
2019-04-27T22:30:40.453Z,75.29
2019-04-27T22:33:08.880Z,74.50
2019-04-27T22:35:37.305Z,75.42
2019-04-27T22:38:05.730Z,75.37
2019-04-27T22:40:47.207Z,75.41
2019-04-27T22:43:35.042Z,74.84
2019-04-27T22:46:15.117Z,75.08
2019-04-27T22:48:43.545Z,75.74
2019-04-27T22:51:11.944Z,75.55
2019-04-27T22:53:41.065Z,74.92
2019-04-27T22:56:13.578Z,75.24
2019-04-27T22:58:43.077Z,75.06
2019-04-27T23:01:15.989Z,75.39
2019-04-27T23:03:46.044Z,75.28
2019-04-27T23:06:14.467Z,75.36
2019-04-27T23:08:42.904Z,75.68
2019-04-27T23:11:13.950Z,75.16
2019-04-27T23:13:42.366Z,75.99
2019-04-27T23:16:12.451Z,75.46
2019-04-27T23:18:41.361Z,75.00
2019-04-27T23:21:13.066Z,75.02
2019-04-27T23:23:41.318Z,75.20
2019-04-27T23:26:11.831Z,74.98
2019-04-27T23:28:42.554Z,74.14
2019-04-27T23:31:15.314Z,74.58
2019-04-27T23:33:46.499Z,75.20
2019-04-27T23:36:14.927Z,75.49
2019-04-27T23:38:43.333Z,75.66
2019-04-27T23:41:11.794Z,75.99
2019-04-27T23:43:41.198Z,75.50
2019-04-27T23:46:11.505Z,75.60
2019-04-27T23:48:41.845Z,75.60
2019-04-27T23:51:28.853Z,75.60
2019-04-27T23:53:57.343Z,75.12
2019-04-27T23:56:28.747Z,75.56
2019-04-27T23:58:57.191Z,75.84
